Time;durP1;ratioP1;P1;durP2;ratioP2;P2;SDS_P1;SDS_P2;PMS_P1;PMS_P2;Temp;Humidity;BMP_temperature;BMP_pressure;BME280_temperature;BME280_humidity;BME280_pressure;Samples;Min_cycle;Max_cycle;Signal;HPM_P1;HPM_P2
2020/12/23 00:01:58;;;;;;;2.10;1.43;;;12.70;99.90;;;;;;5089988;28;20525;-69
2020/12/23 00:04:24;;;;;;;2.10;1.50;;;12.70;99.90;;;;;;5089709;28;20481;-70
2020/12/23 00:06:52;;;;;;;2.57;1.10;;;12.80;99.90;;;;;;5088609;28;20450;-71
2020/12/23 00:09:18;;;;;;;2.93;1.67;;;12.80;99.90;;;;;;5089858;28;20915;-70
2020/12/23 00:11:45;;;;;;;2.07;1.30;;;12.90;99.90;;;;;;5089635;28;20449;-70
2020/12/23 00:14:11;;;;;;;1.90;1.00;;;12.90;99.90;;;;;;5103134;28;20544;-70
2020/12/23 00:16:38;;;;;;;2.10;1.40;;;12.90;99.90;;;;;;5089627;28;20464;-70
2020/12/23 00:19:04;;;;;;;3.03;1.20;;;12.90;99.90;;;;;;5104162;28;20465;-69
2020/12/23 00:21:33;;;;;;;2.37;1.70;;;12.90;99.90;;;;;;5109556;28;20544;-70
2020/12/23 00:24:00;;;;;;;2.90;1.90;;;13.00;99.90;;;;;;5110093;28;20873;-69
2020/12/23 00:26:27;;;;;;;3.03;1.30;;;12.90;99.90;;;;;;5108347;28;20480;-70
2020/12/23 00:28:53;;;;;;;2.17;1.27;;;12.90;99.90;;;;;;5109980;28;20554;-69
2020/12/23 00:31:20;;;;;;;1.77;1.10;;;12.90;99.90;;;;;;5109886;28;21133;-70
2020/12/23 00:33:46;;;;;;;2.43;1.37;;;12.90;99.90;;;;;;5109504;28;20564;-70
2020/12/23 00:36:13;;;;;;;2.33;1.43;;;12.90;99.90;;;;;;5108901;28;20528;-69
2020/12/23 00:38:40;;;;;;;2.63;1.20;;;12.90;99.90;;;;;;5109017;28;20548;-69
2020/12/23 00:41:09;;;;;;;2.13;1.20;;;12.90;99.90;;;;;;5109568;28;20548;-69
2020/12/23 00:43:35;;;;;;;1.80;1.10;;;13.00;99.90;;;;;;5109201;28;20566;-68
2020/12/23 00:46:02;;;;;;;1.70;1.10;;;12.90;99.90;;;;;;5108536;28;20455;-70
2020/12/23 00:48:28;;;;;;;2.10;1.30;;;13.00;99.90;;;;;;5108978;28;20480;-70
2020/12/23 00:50:55;;;;;;;2.40;1.70;;;13.00;99.90;;;;;;5108447;28;20537;-70
2020/12/23 00:53:21;;;;;;;2.00;1.30;;;13.10;99.90;;;;;;5109585;28;20461;-70
2020/12/23 00:55:50;;;;;;;2.30;1.70;;;13.10;99.90;;;;;;5107427;28;20445;-70
2020/12/23 00:58:17;;;;;;;2.63;1.30;;;13.10;99.90;;;;;;5109256;28;20499;-70
2020/12/23 01:00:43;;;;;;;2.07;1.10;;;13.10;99.90;;;;;;5108992;28;20883;-69
2020/12/23 01:03:10;;;;;;;2.30;1.20;;;13.10;99.90;;;;;;5109089;28;20484;-69
2020/12/23 01:05:36;;;;;;;2.70;0.97;;;13.10;99.90;;;;;;5108491;28;20441;-69
2020/12/23 01:08:02;;;;;;;1.87;1.20;;;13.10;99.90;;;;;;5108073;28;20551;-69
2020/12/23 01:10:29;;;;;;;1.97;1.20;;;13.10;99.90;;;;;;5108529;28;21107;-69
2020/12/23 01:12:55;;;;;;;1.50;1.13;;;13.10;99.90;;;;;;5109157;28;20567;-68
2020/12/23 01:15:23;;;;;;;2.00;1.10;;;13.10;99.90;;;;;;5109132;28;20453;-69
2020/12/23 01:17:49;;;;;;;3.17;1.50;;;13.10;99.90;;;;;;5107515;28;20501;-68
2020/12/23 01:20:15;;;;;;;2.70;1.00;;;13.10;99.90;;;;;;5108589;28;20543;-68
2020/12/23 01:22:42;;;;;;;2.20;1.10;;;13.10;99.90;;;;;;5108176;28;20571;-69
2020/12/23 01:25:08;;;;;;;1.60;1.00;;;13.10;99.90;;;;;;5108513;28;20584;-69
2020/12/23 01:27:34;;;;;;;2.03;1.20;;;13.10;99.90;;;;;;5107370;28;20948;-68
2020/12/23 01:30:01;;;;;;;1.50;0.80;;;13.20;99.90;;;;;;5108719;28;20449;-69
2020/12/23 01:32:28;;;;;;;1.60;0.90;;;13.40;99.90;;;;;;5108260;28;20477;-68
2020/12/23 01:34:54;;;;;;;1.50;0.70;;;13.50;99.90;;;;;;5108625;28;20528;-68
2020/12/23 01:37:21;;;;;;;1.70;1.07;;;13.50;99.90;;;;;;5108377;28;20548;-69
2020/12/23 01:39:47;;;;;;;2.43;0.90;;;13.60;99.90;;;;;;5109918;28;20480;-69
2020/12/23 01:42:13;;;;;;;1.50;0.73;;;13.60;99.90;;;;;;5108340;28;20498;-71
2020/12/23 01:44:40;;;;;;;1.60;1.00;;;13.70;99.90;;;;;;5108025;28;20564;-68
2020/12/23 01:47:09;;;;;;;2.47;1.10;;;13.80;99.90;;;;;;5107513;27;20445;-69
2020/12/23 01:49:36;;;;;;;2.20;0.90;;;13.90;99.90;;;;;;5107636;28;20442;-68
2020/12/23 01:52:03;;;;;;;2.27;1.30;;;13.90;99.90;;;;;;5107531;28;20445;-68
2020/12/23 01:54:30;;;;;;;1.70;1.10;;;13.90;99.90;;;;;;5107620;28;20441;-68
2020/12/23 01:56:58;;;;;;;1.43;0.80;;;14.00;99.90;;;;;;5108623;28;20540;-68
2020/12/23 01:59:25;;;;;;;1.50;0.73;;;14.00;99.90;;;;;;5109147;28;20442;-68
2020/12/23 02:02:02;;;;;;;1.40;0.77;;;14.00;99.90;;;;;;5108409;28;20445;-68
2020/12/23 02:04:32;;;;;;;2.30;1.37;;;14.10;99.90;;;;;;5108969;28;20478;-68
2020/12/23 02:06:59;;;;;;;2.83;1.43;;;14.10;99.90;;;;;;5108457;28;20445;-68
2020/12/23 02:09:28;;;;;;;1.70;0.90;;;14.20;99.90;;;;;;5108819;28;20532;-68
2020/12/23 02:11:55;;;;;;;1.30;0.70;;;14.20;99.90;;;;;;5109117;28;20447;-68
2020/12/23 02:14:22;;;;;;;2.87;0.70;;;14.20;99.90;;;;;;5109081;28;20490;-68
2020/12/23 02:16:50;;;;;;;1.73;1.13;;;14.10;99.90;;;;;;5108127;28;20449;-69
2020/12/23 02:19:17;;;;;;;2.23;0.80;;;14.20;99.90;;;;;;5108784;28;20446;-68
2020/12/23 02:21:44;;;;;;;1.80;0.90;;;14.30;99.90;;;;;;5108863;28;20536;-68
2020/12/23 02:24:11;;;;;;;2.23;0.77;;;14.30;99.90;;;;;;5108708;28;20487;-68
2020/12/23 02:26:38;;;;;;;1.40;0.70;;;14.40;99.90;;;;;;5107948;28;20445;-68
2020/12/23 02:29:04;;;;;;;1.40;0.73;;;14.40;99.90;;;;;;5108663;28;20479;-68
2020/12/23 02:31:30;;;;;;;1.30;0.70;;;14.40;99.90;;;;;;5108687;28;20473;-68
2020/12/23 02:33:57;;;;;;;1.50;0.80;;;14.40;99.90;;;;;;5108729;28;20448;-68
2020/12/23 02:36:23;;;;;;;1.30;0.80;;;14.50;99.90;;;;;;5108036;28;20441;-68
2020/12/23 02:38:49;;;;;;;1.40;0.70;;;14.50;99.90;;;;;;5108757;28;20551;-68
2020/12/23 02:41:17;;;;;;;1.30;0.63;;;14.50;99.90;;;;;;5108652;28;20451;-68
2020/12/23 02:43:43;;;;;;;1.30;0.60;;;14.50;99.90;;;;;;5108499;28;20853;-68
2020/12/23 02:46:10;;;;;;;1.67;0.87;;;14.50;99.90;;;;;;5107750;28;20951;-68
2020/12/23 02:48:36;;;;;;;1.90;1.00;;;14.40;99.90;;;;;;5108767;28;20468;-68
2020/12/23 02:51:02;;;;;;;1.40;0.70;;;14.40;99.90;;;;;;5108667;28;20465;-68
2020/12/23 02:53:29;;;;;;;2.53;0.90;;;14.40;99.90;;;;;;5108641;28;20441;-68
2020/12/23 02:55:55;;;;;;;2.53;1.07;;;14.40;99.90;;;;;;5107936;28;20445;-68
2020/12/23 02:58:22;;;;;;;2.17;1.00;;;14.50;99.90;;;;;;5108403;28;20493;-68
2020/12/23 03:00:48;;;;;;;1.40;0.63;;;14.50;99.90;;;;;;5108429;28;20940;-68
2020/12/23 03:03:16;;;;;;;1.90;1.03;;;14.50;99.90;;;;;;5108409;28;20572;-68
2020/12/23 03:05:42;;;;;;;1.50;0.90;;;14.50;99.90;;;;;;5107909;28;20446;-68
2020/12/23 03:08:08;;;;;;;1.93;0.70;;;14.50;99.90;;;;;;5108664;28;20461;-68
2020/12/23 03:10:35;;;;;;;1.70;0.80;;;14.50;99.90;;;;;;5109588;28;21003;-68
2020/12/23 03:13:01;;;;;;;1.67;0.80;;;14.50;99.90;;;;;;5111023;28;21150;-68
2020/12/23 03:15:28;;;;;;;1.70;0.90;;;14.50;99.90;;;;;;5112969;28;20854;-68
2020/12/23 03:17:55;;;;;;;1.70;0.80;;;14.60;99.90;;;;;;5112239;28;20465;-68
2020/12/23 03:20:21;;;;;;;2.10;0.90;;;14.60;99.90;;;;;;5113062;28;20518;-68
2020/12/23 03:22:47;;;;;;;1.90;0.80;;;14.60;99.90;;;;;;5112552;28;20451;-68
2020/12/23 03:25:14;;;;;;;1.63;0.80;;;14.60;99.90;;;;;;5112623;28;20524;-68
2020/12/23 03:27:40;;;;;;;1.60;0.70;;;14.60;99.90;;;;;;5111469;28;20552;-67
2020/12/23 03:30:06;;;;;;;1.30;0.70;;;14.60;99.90;;;;;;5111923;28;20459;-68
2020/12/23 03:32:34;;;;;;;2.27;0.80;;;14.70;99.90;;;;;;5112157;28;20441;-68
2020/12/23 03:35:00;;;;;;;1.50;0.83;;;14.70;99.90;;;;;;5112080;28;20875;-68
2020/12/23 03:37:27;;;;;;;1.30;0.67;;;14.70;99.90;;;;;;5110653;28;20469;-68
2020/12/23 03:39:53;;;;;;;1.70;0.80;;;14.70;99.90;;;;;;5110810;28;20451;-68
2020/12/23 03:42:19;;;;;;;1.60;0.80;;;14.70;99.90;;;;;;5111653;28;20455;-68
2020/12/23 03:44:45;;;;;;;1.43;0.70;;;14.70;99.90;;;;;;5111921;28;20563;-68
2020/12/23 03:47:12;;;;;;;1.47;0.80;;;14.70;99.90;;;;;;5111214;28;20547;-68
2020/12/23 03:49:39;;;;;;;1.60;0.70;;;14.70;99.90;;;;;;5111646;28;20528;-68
2020/12/23 03:52:05;;;;;;;2.07;0.70;;;14.70;99.90;;;;;;5111750;28;20543;-68
2020/12/23 03:54:32;;;;;;;1.60;0.80;;;14.70;99.90;;;;;;5111842;28;20881;-68
2020/12/23 03:56:58;;;;;;;1.70;0.80;;;14.70;99.90;;;;;;5110895;28;20451;-68
2020/12/23 03:59:24;;;;;;;2.20;0.70;;;14.70;99.90;;;;;;5111573;28;20455;-68
2020/12/23 04:01:51;;;;;;;1.60;0.80;;;14.70;99.90;;;;;;5111612;28;20535;-68
2020/12/23 04:04:20;;;;;;;1.77;0.70;;;14.60;99.90;;;;;;5111263;28;20575;-68
2020/12/23 04:06:47;;;;;;;1.40;0.70;;;14.60;99.90;;;;;;5110771;28;20520;-68
2020/12/23 04:09:14;;;;;;;1.57;0.80;;;14.60;99.90;;;;;;5111480;28;20548;-68
2020/12/23 04:11:40;;;;;;;1.50;0.73;;;14.60;99.90;;;;;;5111312;28;20540;-69
2020/12/23 04:14:06;;;;;;;1.57;0.70;;;14.50;99.90;;;;;;5111523;28;20473;-69
2020/12/23 04:16:34;;;;;;;1.40;0.70;;;14.50;99.90;;;;;;5110635;28;20515;-68
2020/12/23 04:19:00;;;;;;;1.33;0.60;;;14.50;99.90;;;;;;5111351;28;20560;-69
2020/12/23 04:21:27;;;;;;;1.37;0.70;;;14.60;99.90;;;;;;5111203;28;20528;-69
2020/12/23 04:23:54;;;;;;;1.33;0.73;;;14.60;99.90;;;;;;5110224;28;20476;-69
2020/12/23 04:26:21;;;;;;;1.97;0.70;;;14.60;99.90;;;;;;5109933;28;20548;-69
2020/12/23 04:28:47;;;;;;;2.07;0.80;;;14.60;99.90;;;;;;5111096;28;20837;-69
2020/12/23 04:31:13;;;;;;;1.20;0.60;;;14.60;99.90;;;;;;5110853;28;20447;-70
2020/12/23 04:33:40;;;;;;;1.73;0.80;;;14.60;99.90;;;;;;5110907;28;20448;-69
2020/12/23 04:36:06;;;;;;;1.50;0.60;;;14.60;99.90;;;;;;5110150;28;20535;-69
2020/12/23 04:38:32;;;;;;;1.60;0.87;;;14.60;99.90;;;;;;5110655;28;20488;-69
2020/12/23 04:41:00;;;;;;;1.70;0.73;;;14.60;99.90;;;;;;5110744;28;20452;-69
2020/12/23 04:43:26;;;;;;;1.40;0.60;;;14.60;99.90;;;;;;5110830;28;20477;-69
2020/12/23 04:45:53;;;;;;;1.93;0.80;;;14.60;99.90;;;;;;5110054;28;20540;-69
2020/12/23 04:48:25;;;;;;;2.33;0.93;;;14.60;99.90;;;;;;5110426;28;20471;-69
2020/12/23 04:50:55;;;;;;;3.13;0.70;;;14.60;99.90;;;;;;5110556;28;21161;-69
2020/12/23 04:53:21;;;;;;;1.60;0.77;;;14.60;99.90;;;;;;5110604;28;20442;-69
2020/12/23 04:55:48;;;;;;;1.40;0.70;;;14.50;99.90;;;;;;5107968;28;20452;-69
2020/12/23 04:58:15;;;;;;;1.40;0.73;;;14.40;99.90;;;;;;5110233;28;20885;-69
2020/12/23 05:00:42;;;;;;;1.40;0.60;;;14.30;99.90;;;;;;5110444;28;20455;-69
2020/12/23 05:03:08;;;;;;;1.63;0.80;;;14.20;99.90;;;;;;5110278;28;20473;-69
2020/12/23 05:05:34;;;;;;;1.50;0.80;;;14.10;99.90;;;;;;5110164;28;20444;-69
2020/12/23 05:08:01;;;;;;;2.50;1.23;;;14.00;99.90;;;;;;5109201;28;20466;-69
2020/12/23 05:10:28;;;;;;;2.00;1.10;;;14.10;99.90;;;;;;5110133;28;20449;-69
2020/12/23 05:12:55;;;;;;;1.37;0.60;;;14.10;99.90;;;;;;5110059;28;20441;-69
2020/12/23 05:15:23;;;;;;;1.90;0.77;;;14.10;99.90;;;;;;5110080;28;20871;-69
2020/12/23 05:17:51;;;;;;;1.80;0.90;;;14.10;99.90;;;;;;5109230;28;20941;-69
2020/12/23 05:20:18;;;;;;;1.40;0.63;;;14.00;99.90;;;;;;5109813;28;20451;-69
2020/12/23 05:22:47;;;;;;;1.40;0.60;;;14.00;99.90;;;;;;5109979;28;20839;-69
2020/12/23 05:25:16;;;;;;;1.90;0.73;;;14.10;99.90;;;;;;5110096;28;20437;-69
2020/12/23 05:27:43;;;;;;;1.40;0.70;;;14.10;99.90;;;;;;5109175;28;20463;-69
2020/12/23 05:30:10;;;;;;;1.80;0.80;;;14.10;99.90;;;;;;5109568;28;20574;-69
2020/12/23 05:32:39;;;;;;;1.70;0.90;;;14.00;99.90;;;;;;5109752;28;21178;-69
2020/12/23 05:35:05;;;;;;;3.60;1.00;;;14.00;99.90;;;;;;5109298;28;20452;-69
2020/12/23 05:37:32;;;;;;;1.77;0.90;;;14.00;99.90;;;;;;5109019;28;20521;-69
2020/12/23 05:39:59;;;;;;;1.77;0.80;;;14.00;99.90;;;;;;5109446;28;20444;-69
2020/12/23 05:42:26;;;;;;;6.20;2.03;;;14.00;99.90;;;;;;5109479;28;20555;-69
2020/12/23 05:44:53;;;;;;;1.50;0.77;;;13.90;99.90;;;;;;5109334;28;20481;-69
2020/12/23 05:47:21;;;;;;;1.47;0.77;;;13.80;99.90;;;;;;5108923;28;20610;-69
2020/12/23 05:49:49;;;;;;;1.67;0.90;;;13.80;99.90;;;;;;5109462;28;20480;-69
2020/12/23 05:52:16;;;;;;;1.40;0.80;;;13.80;99.90;;;;;;5109125;28;20464;-69
2020/12/23 05:54:44;;;;;;;1.70;1.00;;;13.70;99.90;;;;;;5107400;28;20437;-69
2020/12/23 05:57:10;;;;;;;1.50;0.90;;;13.60;99.90;;;;;;5108325;28;20492;-69
2020/12/23 05:59:37;;;;;;;1.90;1.10;;;13.70;99.90;;;;;;5109141;28;20828;-70
2020/12/23 06:02:05;;;;;;;4.03;0.83;;;13.70;99.90;;;;;;5108895;28;20460;-69
2020/12/23 06:04:31;;;;;;;1.67;1.10;;;13.70;99.90;;;;;;5109116;28;20476;-69
2020/12/23 06:07:04;;;;;;;1.50;0.77;;;13.70;99.90;;;;;;5108416;28;20437;-69
2020/12/23 06:09:37;;;;;;;1.87;1.00;;;13.70;99.90;;;;;;5109603;28;20506;-69
2020/12/23 06:12:19;;;;;;;1.40;0.80;;;13.70;99.90;;;;;;5108937;28;20921;-70
2020/12/23 06:14:53;;;;;;;3.33;1.40;;;13.70;99.90;;;;;;5108743;28;20946;-69
2020/12/23 06:17:21;;;;;;;2.30;1.63;;;13.70;99.90;;;;;;5108353;28;20537;-69
2020/12/23 06:19:49;;;;;;;1.50;0.80;;;13.80;99.90;;;;;;5109169;28;20475;-69
2020/12/23 06:22:18;;;;;;;1.90;1.00;;;13.80;99.90;;;;;;5108770;28;20449;-69
2020/12/23 06:24:45;;;;;;;1.80;0.90;;;13.80;99.90;;;;;;5108599;28;20491;-69
2020/12/23 06:27:12;;;;;;;2.10;1.10;;;13.70;99.90;;;;;;5107918;28;20461;-68
2020/12/23 06:29:41;;;;;;;1.63;0.80;;;13.70;99.90;;;;;;5108952;28;20445;-68
2020/12/23 06:32:09;;;;;;;1.70;1.00;;;13.70;99.90;;;;;;5108947;28;20447;-68
2020/12/23 06:34:37;;;;;;;1.47;0.80;;;13.60;99.90;;;;;;5108725;28;20521;-68
2020/12/23 06:37:16;;;;;;;1.50;0.90;;;13.60;99.90;;;;;;5107847;28;20472;-68
2020/12/23 06:39:44;;;;;;;2.60;1.10;;;13.50;99.90;;;;;;5108798;28;20433;-68
2020/12/23 06:42:27;;;;;;;1.60;1.10;;;13.50;99.90;;;;;;5108445;28;20445;-68
2020/12/23 06:44:56;;;;;;;1.97;1.03;;;13.50;99.90;;;;;;5108672;28;20473;-67
2020/12/23 06:47:24;;;;;;;1.80;1.13;;;13.50;99.90;;;;;;5108119;28;20488;-68
2020/12/23 06:49:52;;;;;;;1.83;0.90;;;13.50;99.90;;;;;;5112761;28;20449;-68
2020/12/23 06:52:41;;;;;;;1.60;1.10;;;13.40;99.90;;;;;;5112646;28;20453;-68
2020/12/23 06:55:08;;;;;;;2.03;1.27;;;13.30;99.90;;;;;;5106811;27;20540;-68
2020/12/23 06:57:54;;;;;;;2.23;1.10;;;13.20;99.90;;;;;;5111756;28;20460;-68
2020/12/23 07:00:39;;;;;;;3.27;1.53;;;13.20;99.90;;;;;;5112658;28;20440;-68
2020/12/23 07:03:07;;;;;;;2.00;1.13;;;13.10;99.90;;;;;;5112410;28;20536;-69
2020/12/23 07:05:40;;;;;;;1.93;1.30;;;13.00;99.90;;;;;;5112640;28;20524;-68
2020/12/23 07:08:08;;;;;;;1.80;1.23;;;13.00;99.90;;;;;;5112149;28;20550;-68
2020/12/23 07:10:36;;;;;;;1.63;1.00;;;13.00;99.90;;;;;;5112408;28;20480;-68
2020/12/23 07:13:04;;;;;;;2.00;1.30;;;13.00;99.90;;;;;;5112412;28;20509;-69
2020/12/23 07:15:32;;;;;;;3.90;1.80;;;12.90;99.90;;;;;;5112299;28;21033;-68
2020/12/23 07:18:03;;;;;;;1.93;1.30;;;12.90;99.90;;;;;;5111955;28;20472;-68
2020/12/23 07:20:32;;;;;;;1.63;1.00;;;12.90;99.90;;;;;;5112460;28;21103;-68
2020/12/23 07:23:04;;;;;;;2.33;1.00;;;13.00;99.90;;;;;;5112359;28;20453;-68
2020/12/23 07:25:36;;;;;;;2.70;1.20;;;13.00;99.90;;;;;;5112313;28;20535;-68
2020/12/23 07:28:07;;;;;;;1.83;1.17;;;13.00;99.90;;;;;;5111834;28;20585;-68
2020/12/23 07:30:39;;;;;;;1.83;1.13;;;13.00;99.90;;;;;;5112294;28;20476;-68
2020/12/23 07:33:12;;;;;;;1.63;1.00;;;13.00;99.90;;;;;;5112254;28;20535;-68
2020/12/23 07:35:39;;;;;;;3.50;1.27;;;13.00;99.90;;;;;;5112087;28;20448;-68
2020/12/23 07:38:07;;;;;;;2.43;1.13;;;12.90;99.90;;;;;;5111615;28;20471;-68
2020/12/23 07:40:35;;;;;;;2.27;1.30;;;12.90;99.90;;;;;;5111723;28;20466;-68
2020/12/23 07:43:03;;;;;;;1.80;1.10;;;12.90;99.90;;;;;;5112003;28;20448;-68
2020/12/23 07:45:31;;;;;;;5.20;1.33;;;12.90;99.90;;;;;;5111928;28;20449;-69
2020/12/23 07:47:59;;;;;;;1.90;1.40;;;13.00;99.90;;;;;;5111015;28;20784;-68
2020/12/23 07:50:28;;;;;;;1.77;0.90;;;13.10;99.90;;;;;;5111680;28;20445;-68
2020/12/23 07:52:54;;;;;;;2.20;1.20;;;13.10;99.90;;;;;;5111780;28;21111;-68
2020/12/23 07:55:22;;;;;;;1.97;1.10;;;13.10;99.90;;;;;;5111659;28;20448;-68
2020/12/23 07:57:50;;;;;;;2.10;1.30;;;13.10;99.90;;;;;;5111084;28;20461;-68
2020/12/23 08:00:17;;;;;;;3.63;1.10;;;13.10;99.90;;;;;;5111412;28;20595;-68
2020/12/23 08:02:44;;;;;;;2.07;1.07;;;13.20;99.90;;;;;;5111467;28;20490;-68
2020/12/23 08:05:12;;;;;;;2.07;0.97;;;13.20;99.90;;;;;;5111062;28;20904;-68
2020/12/23 08:07:40;;;;;;;2.17;1.20;;;13.30;99.90;;;;;;5110730;28;20829;-68
2020/12/23 08:10:08;;;;;;;2.43;1.33;;;13.40;99.90;;;;;;5111306;28;20900;-68
2020/12/23 08:12:36;;;;;;;1.97;1.30;;;13.30;99.90;;;;;;5111407;28;20824;-68
2020/12/23 08:15:09;;;;;;;2.00;1.20;;;13.40;99.90;;;;;;5111132;28;20449;-68
2020/12/23 08:17:35;;;;;;;1.50;1.03;;;13.50;99.90;;;;;;5110311;28;21250;-68
2020/12/23 08:20:04;;;;;;;3.20;1.60;;;13.60;99.90;;;;;;5111502;28;20453;-68
2020/12/23 08:22:31;;;;;;;2.10;1.20;;;13.70;99.90;;;;;;5111159;28;20886;-68
2020/12/23 08:25:03;;;;;;;2.47;0.97;;;13.70;99.90;;;;;;5111088;28;20477;-68
2020/12/23 08:27:30;;;;;;;2.20;1.63;;;13.70;99.90;;;;;;5110312;28;20472;-69
2020/12/23 08:29:57;;;;;;;2.50;1.13;;;13.80;99.90;;;;;;5110990;28;20445;-69
2020/12/23 08:32:31;;;;;;;2.90;1.23;;;13.80;99.90;;;;;;5111392;28;20434;-70
2020/12/23 08:35:01;;;;;;;2.90;1.30;;;13.90;99.90;;;;;;5111109;28;20461;-70
2020/12/23 08:37:28;;;;;;;2.30;1.63;;;14.00;99.90;;;;;;5110150;28;20792;-70
2020/12/23 08:39:56;;;;;;;2.70;1.60;;;13.90;99.90;;;;;;5110992;28;20488;-71
2020/12/23 08:42:23;;;;;;;2.00;1.07;;;14.00;99.90;;;;;;5110948;28;21008;-72
2020/12/23 08:44:51;;;;;;;1.50;0.90;;;14.00;99.90;;;;;;5110786;28;20481;-73
2020/12/23 08:47:34;;;;;;;1.90;1.00;;;14.00;99.90;;;;;;5110196;28;20468;-72
2020/12/23 08:50:01;;;;;;;3.27;1.20;;;14.10;99.90;;;;;;5110887;28;20449;-72
2020/12/23 08:52:28;;;;;;;1.80;1.10;;;14.10;99.90;;;;;;5110996;28;20524;-71
2020/12/23 08:54:55;;;;;;;2.20;1.13;;;14.20;99.90;;;;;;5110347;28;20532;-72
2020/12/23 08:57:27;;;;;;;2.80;1.50;;;14.20;99.90;;;;;;5109743;28;20727;-71
2020/12/23 08:59:54;;;;;;;2.03;1.13;;;14.40;99.90;;;;;;5110664;28;21000;-73
2020/12/23 09:02:22;;;;;;;2.23;1.63;;;14.40;99.90;;;;;;5110784;28;20955;-72
2020/12/23 09:04:49;;;;;;;2.07;1.20;;;14.40;99.90;;;;;;5110748;28;21004;-72
2020/12/23 09:07:22;;;;;;;2.87;1.20;;;14.40;99.90;;;;;;5110192;28;20476;-73
2020/12/23 09:09:49;;;;;;;2.00;1.40;;;14.40;99.90;;;;;;5113144;28;20429;-73
2020/12/23 09:12:22;;;;;;;2.27;1.27;;;14.50;99.90;;;;;;5112276;28;20565;-75
2020/12/23 09:14:48;;;;;;;2.07;1.30;;;14.60;99.90;;;;;;5111867;28;20441;-74
2020/12/23 09:17:23;;;;;;;3.10;1.43;;;14.60;99.90;;;;;;5109932;28;20465;-73
2020/12/23 09:19:52;;;;;;;3.23;1.67;;;14.60;99.90;;;;;;5110219;28;20509;-71
2020/12/23 09:22:30;;;;;;;2.40;1.33;;;14.60;99.90;;;;;;5111054;28;20537;-72
2020/12/23 09:25:21;;;;;;;3.13;1.40;;;14.70;99.90;;;;;;5111153;28;21112;-73
2020/12/23 09:27:49;;;;;;;2.47;1.50;;;14.60;99.90;;;;;;5110631;28;20473;-73
2020/12/23 09:30:30;;;;;;;1.87;1.40;;;14.60;99.90;;;;;;5110883;28;20558;-72
2020/12/23 09:32:57;;;;;;;2.33;1.30;;;14.70;99.90;;;;;;5110523;28;20537;-73
2020/12/23 09:35:27;;;;;;;2.60;1.40;;;14.70;99.90;;;;;;5110627;28;20520;-73
2020/12/23 09:38:04;;;;;;;2.20;1.20;;;14.70;99.90;;;;;;5109611;28;20464;-71
2020/12/23 09:40:31;;;;;;;1.97;1.27;;;14.60;99.90;;;;;;5110274;28;20539;-72
2020/12/23 09:42:58;;;;;;;3.90;1.30;;;14.70;99.90;;;;;;5110031;28;20544;-71
2020/12/23 09:45:24;;;;;;;3.27;1.47;;;14.70;99.90;;;;;;5109252;28;20575;-73
2020/12/23 09:47:50;;;;;;;2.70;1.40;;;14.70;99.90;;;;;;5108934;28;20483;-73
2020/12/23 09:50:17;;;;;;;2.50;1.27;;;14.70;99.90;;;;;;5109865;28;20591;-72
2020/12/23 09:52:44;;;;;;;2.10;1.20;;;14.80;99.90;;;;;;5110009;28;20533;-71
2020/12/23 09:55:11;;;;;;;2.40;1.30;;;14.90;99.90;;;;;;5106472;28;20441;-73
2020/12/23 09:57:37;;;;;;;1.90;1.20;;;15.00;99.90;;;;;;5105639;28;20457;-73
2020/12/23 10:00:06;;;;;;;2.23;1.50;;;15.10;99.90;;;;;;5106589;28;20536;-73
2020/12/23 10:02:32;;;;;;;2.00;1.27;;;15.10;99.90;;;;;;5106117;28;20446;-73
2020/12/23 10:04:59;;;;;;;2.20;1.60;;;15.10;99.90;;;;;;5106596;28;21023;-73
2020/12/23 10:07:25;;;;;;;3.07;1.10;;;15.10;99.90;;;;;;5106643;28;20510;-73
2020/12/23 10:09:52;;;;;;;2.30;1.20;;;15.10;99.90;;;;;;5107204;28;20523;-73
2020/12/23 10:12:22;;;;;;;1.93;1.20;;;15.00;99.90;;;;;;5107334;28;20441;-73
2020/12/23 10:14:49;;;;;;;2.20;1.43;;;15.00;99.90;;;;;;5107164;28;20446;-74
2020/12/23 10:17:15;;;;;;;1.97;1.33;;;14.90;99.90;;;;;;5107354;28;20548;-73
2020/12/23 10:19:42;;;;;;;3.00;1.60;;;14.80;99.90;;;;;;5107462;28;20433;-73
2020/12/23 10:22:08;;;;;;;2.30;1.60;;;14.70;99.90;;;;;;5106645;28;20908;-73
2020/12/23 10:24:34;;;;;;;2.53;1.40;;;14.60;99.90;;;;;;5107175;28;20943;-74
2020/12/23 10:27:02;;;;;;;3.33;1.80;;;14.50;99.90;;;;;;5106860;28;20528;-73
2020/12/23 10:29:28;;;;;;;1.87;1.20;;;14.30;99.90;;;;;;5107125;28;20437;-72
2020/12/23 10:31:54;;;;;;;2.60;1.57;;;14.20;99.90;;;;;;5107137;28;21189;-73
2020/12/23 10:34:21;;;;;;;2.70;1.50;;;14.00;99.90;;;;;;5106922;28;21002;-73
2020/12/23 10:36:48;;;;;;;2.60;2.00;;;13.90;99.90;;;;;;5106161;28;20469;-73
2020/12/23 10:39:15;;;;;;;2.60;1.50;;;13.80;99.90;;;;;;5108392;28;20457;-77
2020/12/23 10:41:42;;;;;;;2.23;1.50;;;13.80;99.90;;;;;;5108022;28;20475;-77
2020/12/23 10:44:09;;;;;;;2.00;1.43;;;13.90;99.90;;;;;;5106289;28;20486;-74
2020/12/23 10:46:36;;;;;;;2.60;1.87;;;14.00;99.90;;;;;;5101663;28;20533;-75
2020/12/23 10:49:03;;;;;;;2.90;1.50;;;14.00;99.90;;;;;;5106685;28;20453;-74
2020/12/23 10:51:30;;;;;;;2.20;1.73;;;14.10;99.90;;;;;;5106706;28;20598;-74
2020/12/23 10:53:56;;;;;;;2.47;1.60;;;14.10;99.90;;;;;;5106775;28;20556;-75
2020/12/23 10:56:23;;;;;;;4.80;1.67;;;14.20;99.90;;;;;;5105889;28;20484;-74
2020/12/23 10:58:49;;;;;;;2.97;1.93;;;14.10;99.90;;;;;;5107151;28;21081;-72
2020/12/23 11:01:18;;;;;;;2.73;1.93;;;14.20;99.90;;;;;;5106375;28;20447;-72
2020/12/23 11:03:44;;;;;;;3.47;1.77;;;14.20;99.90;;;;;;5106597;28;20945;-72
2020/12/23 11:06:13;;;;;;;3.57;1.63;;;14.30;99.90;;;;;;5105797;28;20449;-72
2020/12/23 11:08:40;;;;;;;2.20;1.80;;;14.30;99.90;;;;;;5106739;28;20995;-72
2020/12/23 11:11:06;;;;;;;4.00;1.87;;;14.40;99.90;;;;;;5106883;28;20445;-72
2020/12/23 11:13:32;;;;;;;2.57;1.90;;;14.40;99.90;;;;;;5106629;28;21044;-72
2020/12/23 11:15:59;;;;;;;2.73;1.33;;;14.40;99.90;;;;;;5106437;28;21251;-72
2020/12/23 11:18:26;;;;;;;2.40;1.70;;;14.40;99.90;;;;;;5106534;28;20461;-72
2020/12/23 11:20:52;;;;;;;2.90;1.70;;;14.40;99.90;;;;;;5106451;28;20445;-73
2020/12/23 11:23:25;;;;;;;2.23;1.47;;;14.40;99.90;;;;;;5106632;28;20472;-73
2020/12/23 11:25:52;;;;;;;3.03;2.10;;;14.20;99.90;;;;;;5105485;28;21017;-72
2020/12/23 11:28:18;;;;;;;3.20;1.83;;;14.20;99.90;;;;;;5104137;28;20540;-72
2020/12/23 11:30:45;;;;;;;2.63;2.00;;;14.10;99.90;;;;;;5105479;28;20560;-72
2020/12/23 11:33:12;;;;;;;3.13;1.90;;;14.10;99.90;;;;;;5104336;28;20902;-72
2020/12/23 11:35:39;;;;;;;3.03;1.90;;;13.90;99.90;;;;;;5107264;28;20473;-72
2020/12/23 11:38:05;;;;;;;3.33;1.73;;;14.00;99.90;;;;;;5108874;28;20651;-72
2020/12/23 11:40:31;;;;;;;3.27;1.97;;;13.90;99.90;;;;;;5109629;28;20545;-72
2020/12/23 11:42:58;;;;;;;3.17;2.00;;;13.80;99.90;;;;;;5109283;27;20523;-72
2020/12/23 11:45:25;;;;;;;2.80;2.17;;;13.80;99.90;;;;;;5108631;28;20473;-72
2020/12/23 11:47:52;;;;;;;2.67;1.90;;;13.70;99.90;;;;;;5105250;28;20461;-72
2020/12/23 11:50:18;;;;;;;3.10;2.20;;;13.70;99.90;;;;;;5109750;28;20500;-72
2020/12/23 11:52:46;;;;;;;3.03;2.33;;;13.60;99.90;;;;;;5107430;28;20445;-72
2020/12/23 11:55:12;;;;;;;3.63;2.30;;;13.70;99.90;;;;;;5106358;28;20441;-72
2020/12/23 11:57:39;;;;;;;4.10;2.10;;;13.60;99.90;;;;;;5104413;28;20967;-72
2020/12/23 12:00:06;;;;;;;2.67;2.00;;;13.70;99.90;;;;;;5108878;28;20956;-72
2020/12/23 12:02:32;;;;;;;4.30;2.33;;;13.60;99.90;;;;;;5108085;28;20601;-72
2020/12/23 12:04:59;;;;;;;2.30;1.80;;;13.70;99.90;;;;;;5109184;28;21096;-72
2020/12/23 12:07:25;;;;;;;4.20;2.20;;;13.60;99.90;;;;;;5108696;28;20841;-72
2020/12/23 12:09:52;;;;;;;5.03;1.90;;;13.60;99.90;;;;;;5088948;28;21212;-72
2020/12/23 12:12:19;;;;;;;2.93;2.10;;;13.60;99.90;;;;;;5096120;28;20541;-72
2020/12/23 12:14:45;;;;;;;3.20;1.67;;;13.50;99.90;;;;;;5106961;28;20441;-73
2020/12/23 12:17:12;;;;;;;2.07;1.53;;;13.60;99.90;;;;;;5108033;28;20451;-71
2020/12/23 12:19:38;;;;;;;3.13;1.80;;;13.60;99.90;;;;;;5107908;28;20933;-71
2020/12/23 12:22:04;;;;;;;2.93;2.20;;;13.60;99.90;;;;;;5108823;28;20531;-71
2020/12/23 12:24:32;;;;;;;3.20;2.10;;;13.60;99.90;;;;;;5108513;28;20587;-70
2020/12/23 12:26:59;;;;;;;2.40;1.70;;;13.60;99.90;;;;;;5125479;27;20486;-72
2020/12/23 12:29:26;;;;;;;2.40;1.90;;;13.60;99.90;;;;;;5129133;27;20540;-71
2020/12/23 12:31:54;;;;;;;3.23;2.03;;;13.60;99.90;;;;;;5129052;27;20440;-72
2020/12/23 12:34:22;;;;;;;3.00;2.00;;;13.60;99.90;;;;;;5110672;27;21005;-72
2020/12/23 12:36:48;;;;;;;2.80;2.00;;;13.60;99.90;;;;;;5106961;28;20857;-71
2020/12/23 12:39:14;;;;;;;2.60;1.90;;;13.60;99.90;;;;;;5107965;27;21099;-71
2020/12/23 12:41:41;;;;;;;2.93;1.93;;;13.60;99.90;;;;;;5108431;28;20942;-71
2020/12/23 12:44:09;;;;;;;4.50;2.07;;;13.70;99.90;;;;;;5107958;28;20960;-71
2020/12/23 12:46:36;;;;;;;3.53;2.27;;;13.70;99.90;;;;;;5106956;28;20549;-71
2020/12/23 12:49:02;;;;;;;2.63;1.73;;;13.70;99.90;;;;;;5108484;28;20543;-71
2020/12/23 12:51:29;;;;;;;2.90;1.57;;;13.70;99.90;;;;;;5107533;28;20505;-70